createdAt,value
2019-05-29T00:00:30.699Z,14.88
2019-05-29T00:01:30.723Z,14.77
2019-05-29T00:02:30.761Z,14.82
2019-05-29T00:03:30.719Z,14.59
2019-05-29T00:04:30.800Z,14.60
2019-05-29T00:05:30.834Z,14.76
2019-05-29T00:06:30.766Z,14.77
2019-05-29T00:07:30.810Z,14.68
2019-05-29T00:08:30.858Z,14.68
2019-05-29T00:09:30.796Z,14.71
2019-05-29T00:10:30.859Z,14.77
2019-05-29T00:11:30.892Z,14.84
2019-05-29T00:12:30.822Z,14.86
2019-05-29T00:13:30.867Z,14.92
2019-05-29T00:14:30.877Z,14.90
2019-05-29T00:15:30.842Z,14.33
2019-05-29T00:16:30.914Z,14.42
2019-05-29T00:17:30.954Z,14.57
2019-05-29T00:18:30.874Z,14.65
2019-05-29T00:19:30.916Z,14.66
2019-05-29T00:20:30.967Z,14.67
2019-05-29T00:21:30.888Z,14.72
2019-05-29T00:22:30.963Z,14.73
2019-05-29T00:23:31.002Z,14.76
2019-05-29T00:24:30.987Z,14.80
2019-05-29T00:25:30.953Z,14.76
2019-05-29T00:26:30.976Z,14.82
2019-05-29T00:27:30.939Z,14.77
2019-05-29T00:28:31.020Z,14.73
2019-05-29T00:29:31.038Z,14.70
2019-05-29T00:30:31.009Z,14.62
2019-05-29T00:31:31.031Z,14.48
2019-05-29T00:32:31.160Z,14.64
2019-05-29T00:33:31.114Z,14.60
2019-05-29T00:34:31.178Z,14.60
2019-05-29T00:35:31.155Z,14.25
2019-05-29T00:36:31.106Z,14.29
2019-05-29T00:37:31.161Z,14.42
2019-05-29T00:38:31.196Z,14.34
2019-05-29T00:39:31.159Z,14.18
2019-05-29T00:40:31.205Z,14.30
2019-05-29T00:41:31.226Z,14.44
2019-05-29T00:42:31.158Z,14.46
2019-05-29T00:43:31.224Z,14.56
2019-05-29T00:44:34.425Z,14.63
2019-05-29T00:45:31.234Z,14.63
2019-05-29T00:46:31.255Z,14.63
2019-05-29T00:47:31.280Z,14.56
2019-05-29T00:48:31.230Z,14.14
2019-05-29T00:49:31.274Z,14.12
2019-05-29T00:50:31.312Z,14.29
2019-05-29T00:51:31.256Z,14.35
2019-05-29T00:52:31.300Z,14.59
2019-05-29T00:53:31.283Z,14.61
2019-05-29T00:54:31.234Z,14.53
2019-05-29T00:55:31.275Z,14.58
2019-05-29T00:56:31.308Z,14.65
2019-05-29T00:57:31.249Z,14.34
2019-05-29T00:58:31.300Z,14.35
2019-05-29T00:59:31.301Z,14.48
2019-05-29T01:00:31.249Z,14.58
2019-05-29T01:01:31.316Z,14.39
2019-05-29T01:02:31.329Z,14.22
2019-05-29T01:03:31.253Z,14.13
2019-05-29T01:04:31.313Z,14.47
2019-05-29T01:05:31.324Z,14.49
2019-05-29T01:06:31.248Z,14.53
2019-05-29T01:07:31.297Z,14.32
2019-05-29T01:08:31.338Z,14.32
2019-05-29T01:09:31.273Z,13.93
2019-05-29T01:10:31.304Z,14.16
2019-05-29T01:11:31.287Z,14.02
2019-05-29T01:12:31.265Z,14.23
2019-05-29T01:13:31.301Z,14.17
2019-05-29T01:14:31.330Z,14.05
2019-05-29T01:15:31.268Z,13.74
2019-05-29T01:16:31.308Z,13.87
2019-05-29T01:17:31.309Z,13.72
2019-05-29T01:18:31.262Z,13.52
2019-05-29T01:19:31.344Z,13.49
2019-05-29T01:20:31.321Z,13.70
2019-05-29T01:21:31.288Z,13.87
2019-05-29T01:22:31.307Z,14.15
2019-05-29T01:23:31.333Z,14.20
2019-05-29T01:24:31.267Z,14.04
2019-05-29T01:25:31.290Z,13.56
2019-05-29T01:26:31.335Z,13.74
2019-05-29T01:27:31.288Z,14.00
2019-05-29T01:28:31.327Z,14.10
2019-05-29T01:29:31.346Z,14.21
2019-05-29T01:30:31.271Z,14.15
2019-05-29T01:31:31.316Z,14.15
2019-05-29T01:32:31.341Z,14.04
2019-05-29T01:33:31.286Z,14.05
2019-05-29T01:34:31.339Z,13.94
2019-05-29T01:35:31.314Z,13.85
2019-05-29T01:36:31.264Z,13.83
2019-05-29T01:37:31.306Z,13.95
2019-05-29T01:38:31.336Z,14.09
2019-05-29T01:39:31.323Z,14.20
2019-05-29T01:40:31.341Z,14.22
2019-05-29T01:41:31.297Z,14.07
2019-05-29T01:42:31.344Z,14.11
2019-05-29T01:43:31.321Z,13.95
2019-05-29T01:44:31.352Z,13.60
2019-05-29T01:45:31.309Z,14.00
2019-05-29T01:46:31.326Z,14.00
2019-05-29T01:47:31.307Z,13.89
2019-05-29T01:48:31.338Z,13.79
2019-05-29T01:49:31.329Z,13.30
2019-05-29T01:50:31.359Z,13.62
2019-05-29T01:51:31.302Z,13.68
2019-05-29T01:52:31.343Z,13.72
2019-05-29T01:53:31.341Z,13.79
2019-05-29T01:54:31.295Z,13.73
2019-05-29T01:55:31.330Z,13.85
2019-05-29T01:56:31.343Z,13.82
2019-05-29T01:57:31.302Z,13.73
2019-05-29T01:58:31.359Z,13.88
2019-05-29T01:59:31.362Z,13.90
2019-05-29T02:00:31.299Z,13.85
2019-05-29T02:01:31.341Z,13.46
2019-05-29T02:02:31.384Z,13.53
2019-05-29T02:03:31.387Z,13.14
2019-05-29T02:04:31.367Z,13.17
2019-05-29T02:05:31.368Z,13.38
2019-05-29T02:06:31.294Z,13.58
2019-05-29T02:07:31.342Z,13.60
2019-05-29T02:08:31.317Z,13.74
2019-05-29T02:09:31.398Z,13.82
2019-05-29T02:10:31.356Z,13.60
2019-05-29T02:11:32.284Z,13.66
2019-05-29T02:12:31.304Z,13.47
2019-05-29T02:13:31.340Z,13.47
2019-05-29T02:14:31.356Z,13.71
2019-05-29T02:15:32.599Z,13.88
2019-05-29T02:16:31.379Z,13.61
2019-05-29T02:17:31.394Z,13.61
2019-05-29T02:18:31.311Z,13.74
2019-05-29T02:19:31.363Z,13.79
2019-05-29T02:20:31.376Z,13.90
2019-05-29T02:21:31.321Z,13.78
2019-05-29T02:22:31.388Z,13.71
2019-05-29T02:23:31.415Z,13.73
2019-05-29T02:24:31.337Z,13.58
2019-05-29T02:25:31.384Z,13.74
2019-05-29T02:26:31.380Z,13.81
2019-05-29T02:27:31.406Z,13.65
2019-05-29T02:28:31.477Z,13.60
2019-05-29T02:29:31.448Z,13.30
2019-05-29T02:30:31.424Z,13.47
2019-05-29T02:31:31.468Z,13.63
2019-05-29T02:32:31.512Z,13.65
2019-05-29T02:33:31.457Z,13.74
2019-05-29T02:34:31.472Z,13.77
2019-05-29T02:35:31.566Z,13.88
2019-05-29T02:36:31.487Z,13.68
2019-05-29T02:37:31.532Z,13.63
2019-05-29T02:38:31.576Z,13.58
2019-05-29T02:39:31.531Z,13.60
2019-05-29T02:40:31.563Z,13.14
2019-05-29T02:41:31.551Z,13.35
2019-05-29T02:42:31.503Z,13.22
2019-05-29T02:43:31.544Z,13.39
2019-05-29T02:44:31.705Z,13.45
2019-05-29T02:45:52.783Z,13.29
2019-05-29T02:46:31.699Z,13.19
2019-05-29T02:47:31.634Z,13.23
2019-05-29T02:48:31.873Z,13.50
2019-05-29T02:49:31.677Z,13.58
2019-05-29T02:50:31.683Z,12.84
2019-05-29T02:51:31.669Z,13.10
2019-05-29T02:52:31.677Z,13.29
2019-05-29T02:53:31.690Z,13.39
2019-05-29T02:54:32.418Z,13.52
2019-05-29T02:55:31.665Z,13.17
2019-05-29T02:56:31.670Z,13.10
2019-05-29T02:57:31.702Z,13.31
2019-05-29T02:58:31.957Z,13.33
2019-05-29T02:59:32.057Z,13.35
2019-05-29T03:00:31.673Z,13.46
2019-05-29T03:01:31.875Z,13.59
2019-05-29T03:02:32.119Z,13.69
2019-05-29T03:03:37.974Z,13.24
2019-05-29T03:04:32.818Z,13.05
2019-05-29T03:05:32.074Z,13.35
2019-05-29T03:06:32.366Z,13.46
2019-05-29T03:07:32.811Z,13.55
2019-05-29T03:08:32.470Z,13.43
2019-05-29T03:09:32.609Z,13.60
2019-05-29T03:10:33.098Z,13.55
2019-05-29T03:11:33.353Z,13.52
2019-05-29T03:12:33.479Z,13.52
2019-05-29T03:13:32.255Z,13.64
2019-05-29T03:14:32.297Z,13.70
2019-05-29T03:15:31.739Z,13.50
2019-05-29T03:16:32.869Z,13.32
2019-05-29T03:17:32.005Z,13.30
2019-05-29T03:18:32.550Z,13.05
2019-05-29T03:19:32.528Z,13.41
2019-05-29T03:20:32.415Z,13.54
2019-05-29T03:21:32.458Z,13.56
2019-05-29T03:22:33.240Z,13.18
2019-05-29T03:23:33.936Z,13.11
2019-05-29T03:24:32.946Z,13.28
2019-05-29T03:25:32.598Z,13.46
2019-05-29T03:26:33.406Z,13.56
2019-05-29T03:27:32.040Z,13.62
2019-05-29T03:28:32.404Z,13.44
2019-05-29T03:29:32.003Z,13.52
2019-05-29T03:30:37.381Z,13.56
2019-05-29T03:31:38.193Z,13.65
2019-05-29T03:32:37.673Z,13.58
2019-05-29T03:33:39.312Z,13.57
2019-05-29T03:34:37.681Z,13.58
2019-05-29T03:35:39.687Z,13.39
2019-05-29T03:36:38.438Z,12.86
2019-05-29T03:37:32.474Z,13.29
2019-05-29T03:38:32.718Z,13.23
2019-05-29T03:39:32.354Z,13.45
2019-05-29T03:40:33.270Z,13.55
2019-05-29T03:41:32.724Z,13.44
2019-05-29T03:42:32.598Z,13.19
2019-05-29T03:43:33.144Z,13.32
2019-05-29T03:44:33.213Z,13.46
2019-05-29T03:45:34.028Z,13.33
2019-05-29T03:46:41.091Z,13.62
2019-05-29T03:47:33.156Z,13.63
2019-05-29T03:48:32.828Z,13.41
2019-05-29T03:49:33.161Z,13.60
2019-05-29T03:50:33.316Z,13.69
2019-05-29T03:51:32.686Z,13.72
2019-05-29T03:52:32.704Z,13.82
2019-05-29T03:53:33.332Z,13.47
2019-05-29T03:54:33.783Z,13.63
2019-05-29T03:55:33.551Z,13.68
2019-05-29T03:56:32.594Z,13.83
2019-05-29T03:57:33.707Z,13.88
2019-05-29T03:58:33.232Z,13.88
2019-05-29T03:59:32.704Z,13.82
2019-05-29T04:00:41.346Z,13.59
2019-05-29T04:01:33.242Z,13.14
2019-05-29T04:02:33.265Z,13.47
2019-05-29T04:03:33.351Z,13.71
2019-05-29T04:04:33.399Z,13.81
2019-05-29T04:05:33.426Z,13.88
2019-05-29T04:06:33.396Z,13.98
2019-05-29T04:07:33.527Z,13.80
2019-05-29T04:08:33.462Z,13.57
2019-05-29T04:09:33.301Z,13.66
2019-05-29T04:10:34.637Z,13.74
2019-05-29T04:11:33.170Z,13.80
2019-05-29T04:12:33.379Z,13.92
2019-05-29T04:13:33.389Z,13.98
2019-05-29T04:14:33.371Z,13.82
2019-05-29T04:15:33.533Z,13.89
2019-05-29T04:16:50.968Z,13.76
2019-05-29T04:17:33.446Z,13.93
2019-05-29T04:18:33.691Z,13.52
2019-05-29T04:19:32.641Z,13.81
2019-05-29T04:20:33.188Z,13.94
2019-05-29T04:21:32.279Z,14.02
2019-05-29T04:22:32.881Z,14.01
2019-05-29T04:23:32.155Z,14.07
2019-05-29T04:24:31.995Z,13.82
2019-05-29T04:25:35.424Z,13.88
2019-05-29T04:26:32.281Z,13.93
2019-05-29T04:27:32.094Z,13.87
2019-05-29T04:28:32.352Z,13.78
2019-05-29T04:29:32.095Z,13.96
2019-05-29T04:30:32.095Z,13.90
2019-05-29T04:31:32.526Z,14.05
2019-05-29T04:32:32.271Z,14.19
2019-05-29T04:33:32.645Z,14.01
2019-05-29T04:34:33.801Z,14.15
2019-05-29T04:35:32.570Z,14.12
2019-05-29T04:36:32.918Z,14.05
2019-05-29T04:37:32.579Z,13.84
2019-05-29T04:38:33.350Z,14.09
2019-05-29T04:39:32.754Z,14.19
2019-05-29T04:40:32.707Z,14.14
2019-05-29T04:41:32.785Z,14.29
2019-05-29T04:42:33.518Z,14.26
2019-05-29T04:43:33.341Z,14.19
2019-05-29T04:44:33.270Z,14.23
2019-05-29T04:45:33.319Z,14.05
2019-05-29T04:46:31.962Z,14.09
2019-05-29T04:47:33.323Z,14.14
2019-05-29T04:48:33.509Z,14.33
2019-05-29T04:49:33.666Z,14.00
2019-05-29T04:50:33.455Z,13.71
2019-05-29T04:51:33.085Z,14.05
2019-05-29T04:52:33.579Z,14.34
2019-05-29T04:53:33.501Z,14.21
2019-05-29T04:54:33.351Z,14.15
2019-05-29T04:55:32.740Z,13.94
2019-05-29T04:56:32.790Z,13.99
2019-05-29T04:57:32.856Z,14.09
2019-05-29T04:58:32.842Z,14.16
2019-05-29T04:59:33.037Z,13.84
2019-05-29T05:00:33.066Z,13.85
2019-05-29T05:01:33.019Z,13.78
2019-05-29T05:02:33.024Z,14.02
2019-05-29T05:03:33.107Z,14.08
2019-05-29T05:04:33.138Z,13.99
2019-05-29T05:05:33.162Z,14.22
2019-05-29T05:06:33.016Z,14.06
2019-05-29T05:07:33.150Z,13.84
2019-05-29T05:08:33.233Z,13.87
2019-05-29T05:09:33.290Z,13.92
2019-05-29T05:10:33.320Z,14.17
2019-05-29T05:11:33.318Z,14.19
2019-05-29T05:12:32.120Z,13.94
2019-05-29T05:13:32.134Z,14.26
2019-05-29T05:14:32.165Z,14.18
2019-05-29T05:15:32.147Z,14.34
2019-05-29T05:16:32.179Z,14.34
2019-05-29T05:17:32.216Z,14.33
2019-05-29T05:18:32.193Z,14.31
2019-05-29T05:19:32.216Z,14.52
2019-05-29T05:20:32.255Z,14.60
2019-05-29T05:21:32.208Z,14.36
2019-05-29T05:22:32.248Z,14.51
2019-05-29T05:23:32.302Z,14.75
2019-05-29T05:24:32.237Z,14.86
2019-05-29T05:25:32.283Z,14.93
2019-05-29T05:26:32.345Z,15.05
2019-05-29T05:27:32.298Z,15.03
2019-05-29T05:28:32.311Z,14.98
2019-05-29T05:29:32.311Z,15.13
2019-05-29T05:30:32.422Z,15.05
2019-05-29T05:31:32.422Z,15.06
2019-05-29T05:32:32.623Z,14.73
2019-05-29T05:33:32.451Z,14.92
2019-05-29T05:34:32.631Z,14.96
2019-05-29T05:35:32.695Z,15.09
2019-05-29T05:36:32.685Z,15.23
2019-05-29T05:37:32.716Z,14.85
2019-05-29T05:38:32.632Z,14.90
2019-05-29T05:39:32.798Z,14.74
2019-05-29T05:40:33.035Z,14.99
2019-05-29T05:41:32.690Z,15.01
2019-05-29T05:42:32.889Z,15.24
2019-05-29T05:43:32.893Z,15.16
2019-05-29T05:44:32.848Z,15.15
2019-05-29T05:45:32.999Z,15.14
2019-05-29T05:46:32.942Z,14.88
2019-05-29T05:47:44.947Z,15.11
2019-05-29T05:48:33.007Z,15.00
2019-05-29T05:49:33.208Z,14.56
2019-05-29T05:50:33.297Z,14.64
2019-05-29T05:51:33.449Z,14.37
2019-05-29T05:52:33.667Z,14.56
2019-05-29T05:53:33.363Z,14.73
2019-05-29T05:54:33.387Z,14.78
2019-05-29T05:55:33.486Z,14.30
2019-05-29T05:56:33.674Z,14.38
2019-05-29T05:57:33.532Z,14.55
2019-05-29T05:58:33.658Z,14.80
2019-05-29T05:59:33.525Z,14.80
2019-05-29T06:00:33.819Z,14.53
2019-05-29T06:01:33.685Z,14.31
2019-05-29T06:02:33.647Z,14.63
2019-05-29T06:03:33.830Z,14.52
2019-05-29T06:04:33.616Z,14.65
2019-05-29T06:05:33.866Z,14.54
2019-05-29T06:06:32.441Z,14.52
2019-05-29T06:07:32.488Z,14.69
2019-05-29T06:08:32.520Z,14.87
2019-05-29T06:09:32.718Z,14.77
2019-05-29T06:10:32.490Z,14.92
2019-05-29T06:11:32.505Z,14.59
2019-05-29T06:12:32.454Z,14.61
2019-05-29T06:13:32.484Z,14.71
2019-05-29T06:14:32.534Z,14.80
2019-05-29T06:15:32.488Z,14.67
2019-05-29T06:16:32.958Z,14.80
2019-05-29T06:17:32.508Z,14.73
2019-05-29T06:18:32.462Z,14.52
2019-05-29T06:19:32.742Z,14.61
2019-05-29T06:20:32.680Z,14.79
2019-05-29T06:21:32.567Z,14.84
2019-05-29T06:22:32.900Z,15.05
2019-05-29T06:23:32.797Z,15.10
2019-05-29T06:24:33.407Z,14.74
2019-05-29T06:25:33.861Z,14.76
2019-05-29T06:26:32.849Z,15.00
2019-05-29T06:27:33.530Z,15.17
2019-05-29T06:28:33.023Z,15.32
2019-05-29T06:29:33.506Z,15.41
2019-05-29T06:30:34.056Z,15.53
2019-05-29T06:31:33.318Z,15.56
2019-05-29T06:32:33.435Z,15.62
2019-05-29T06:33:33.408Z,15.13
2019-05-29T06:34:33.507Z,14.97
2019-05-29T06:35:34.015Z,15.30
2019-05-29T06:36:33.442Z,15.24
2019-05-29T06:37:33.630Z,15.16
2019-05-29T06:38:33.593Z,15.37
2019-05-29T06:39:33.486Z,15.58
2019-05-29T06:40:33.928Z,15.50
2019-05-29T06:41:33.560Z,15.52
2019-05-29T06:42:33.521Z,15.46
2019-05-29T06:43:33.731Z,15.46
2019-05-29T06:44:34.143Z,15.07
2019-05-29T06:45:33.663Z,14.89
2019-05-29T06:46:34.220Z,14.89
2019-05-29T06:47:34.129Z,15.27
2019-05-29T06:48:44.774Z,15.42
2019-05-29T06:49:32.505Z,15.63
2019-05-29T06:50:32.570Z,15.67
2019-05-29T06:51:32.554Z,15.81
2019-05-29T06:52:32.523Z,15.85
2019-05-29T06:53:32.532Z,15.76
2019-05-29T06:54:32.483Z,15.51
2019-05-29T06:55:32.540Z,15.55
2019-05-29T06:56:32.557Z,15.66
2019-05-29T06:57:32.498Z,15.48
2019-05-29T06:58:32.530Z,14.78
2019-05-29T06:59:32.516Z,15.03
2019-05-29T07:00:35.558Z,15.21
2019-05-29T07:01:32.523Z,14.99
2019-05-29T07:02:32.569Z,14.91
2019-05-29T07:03:32.497Z,15.02
2019-05-29T07:04:32.522Z,15.21
2019-05-29T07:05:32.520Z,14.95
2019-05-29T07:06:32.492Z,14.94
2019-05-29T07:07:32.530Z,15.31
2019-05-29T07:08:39.103Z,15.43
2019-05-29T07:09:32.563Z,15.43
2019-05-29T07:10:32.528Z,15.44
2019-05-29T07:11:32.571Z,15.51
2019-05-29T07:12:32.494Z,15.70
2019-05-29T07:13:35.114Z,15.85
2019-05-29T07:14:32.580Z,15.86
2019-05-29T07:15:32.515Z,15.59
2019-05-29T07:16:43.877Z,15.19
2019-05-29T07:17:32.527Z,15.50
2019-05-29T07:18:32.577Z,15.21
2019-05-29T07:19:47.405Z,15.35
2019-05-29T07:20:32.582Z,15.07
2019-05-29T07:21:32.556Z,15.33
2019-05-29T07:22:32.558Z,15.13
2019-05-29T07:23:32.542Z,15.16
2019-05-29T07:24:32.501Z,15.02
2019-05-29T07:25:32.542Z,15.07
2019-05-29T07:26:32.593Z,15.21
2019-05-29T07:27:32.518Z,14.77
2019-05-29T07:28:32.549Z,15.11
2019-05-29T07:29:32.538Z,15.29
2019-05-29T07:30:32.508Z,14.98
2019-05-29T07:31:32.542Z,15.06
2019-05-29T07:32:32.579Z,15.29
2019-05-29T07:33:32.539Z,15.30
2019-05-29T07:34:49.924Z,14.97
2019-05-29T07:35:32.538Z,15.20
2019-05-29T07:36:32.528Z,15.26
2019-05-29T07:37:32.596Z,15.43
2019-05-29T07:38:32.552Z,15.49
2019-05-29T07:39:32.557Z,15.52
2019-05-29T07:40:35.709Z,15.21
2019-05-29T07:41:32.593Z,15.13
2019-05-29T07:42:32.515Z,15.30
2019-05-29T07:43:32.564Z,15.52
2019-05-29T07:44:32.626Z,15.48
2019-05-29T07:45:32.537Z,15.54
2019-05-29T07:46:32.537Z,15.48
2019-05-29T07:47:32.623Z,15.12
2019-05-29T07:48:32.544Z,15.17
2019-05-29T07:49:39.153Z,15.30
2019-05-29T07:50:32.567Z,15.37
2019-05-29T07:51:32.637Z,15.40
2019-05-29T07:52:32.585Z,15.01
2019-05-29T07:53:33.751Z,14.82
2019-05-29T07:54:32.569Z,15.15
2019-05-29T07:55:32.569Z,15.33
2019-05-29T07:56:32.619Z,15.28
2019-05-29T07:57:32.550Z,15.44
2019-05-29T07:58:32.573Z,15.54
2019-05-29T07:59:32.606Z,15.69
2019-05-29T08:00:35.568Z,15.57
2019-05-29T08:01:32.580Z,15.43
2019-05-29T08:02:32.586Z,15.17
2019-05-29T08:03:32.554Z,15.23
2019-05-29T08:04:32.578Z,15.37
2019-05-29T08:05:32.623Z,15.20
2019-05-29T08:06:32.616Z,15.14
2019-05-29T08:07:32.597Z,15.42
2019-05-29T08:08:32.599Z,15.39
2019-05-29T08:09:32.541Z,15.35
2019-05-29T08:10:32.580Z,15.30
2019-05-29T08:11:32.620Z,15.23
2019-05-29T08:12:32.558Z,15.34
2019-05-29T08:13:32.588Z,15.13
2019-05-29T08:14:32.640Z,15.13
2019-05-29T08:15:32.534Z,15.36
2019-05-29T08:16:32.569Z,15.06
2019-05-29T08:17:32.609Z,15.02
2019-05-29T08:18:32.568Z,15.23
2019-05-29T08:19:32.593Z,15.25
2019-05-29T08:20:32.583Z,14.74
2019-05-29T08:21:32.557Z,14.95
2019-05-29T08:22:34.538Z,15.10
2019-05-29T08:23:32.644Z,15.25
2019-05-29T08:24:32.571Z,15.27
2019-05-29T08:25:32.594Z,15.45
2019-05-29T08:26:32.633Z,15.52
2019-05-29T08:27:32.594Z,15.38
2019-05-29T08:28:32.620Z,14.94
2019-05-29T08:29:32.685Z,15.11
2019-05-29T08:30:36.203Z,14.95
2019-05-29T08:31:32.634Z,14.80
2019-05-29T08:32:32.653Z,14.62
2019-05-29T08:33:32.640Z,15.03
2019-05-29T08:34:32.657Z,14.80
2019-05-29T08:35:32.671Z,14.99
2019-05-29T08:36:32.636Z,15.15
2019-05-29T08:37:32.646Z,15.35
2019-05-29T08:38:32.695Z,14.88
2019-05-29T08:39:36.659Z,14.99
2019-05-29T08:40:32.653Z,15.17
2019-05-29T08:41:32.702Z,15.16
2019-05-29T08:42:32.632Z,15.00
2019-05-29T08:43:32.646Z,14.94
2019-05-29T08:44:32.684Z,14.96
2019-05-29T08:45:32.623Z,15.08
2019-05-29T08:46:33.479Z,14.67
2019-05-29T08:47:32.661Z,14.71
2019-05-29T08:48:32.612Z,14.77
2019-05-29T08:49:32.666Z,14.75
2019-05-29T08:50:32.658Z,14.83
2019-05-29T08:51:32.626Z,14.97
2019-05-29T08:52:32.666Z,15.03
2019-05-29T08:53:32.700Z,15.17
2019-05-29T08:54:33.333Z,15.10
2019-05-29T08:55:32.657Z,15.18
2019-05-29T08:56:32.673Z,15.13
2019-05-29T08:57:32.691Z,15.01
2019-05-29T08:58:32.654Z,15.20
2019-05-29T08:59:32.690Z,14.66
2019-05-29T09:00:32.628Z,14.89
2019-05-29T09:01:32.673Z,14.85
2019-05-29T09:02:32.701Z,14.95
2019-05-29T09:03:32.662Z,15.31
2019-05-29T09:04:32.813Z,14.77
2019-05-29T09:05:32.708Z,14.74
2019-05-29T09:06:32.636Z,14.86
2019-05-29T09:07:32.677Z,14.86
2019-05-29T09:08:32.709Z,14.62
2019-05-29T09:09:32.622Z,14.86
2019-05-29T09:10:32.681Z,14.90
2019-05-29T09:11:32.700Z,14.97
2019-05-29T09:12:32.671Z,15.26
2019-05-29T09:13:32.681Z,14.99
2019-05-29T09:14:32.718Z,15.19
2019-05-29T09:15:32.670Z,14.89
2019-05-29T09:16:32.661Z,15.15
2019-05-29T09:17:34.540Z,15.11
2019-05-29T09:18:32.721Z,15.08
2019-05-29T09:19:32.711Z,15.05
2019-05-29T09:20:57.881Z,15.01
2019-05-29T09:21:32.695Z,14.95
2019-05-29T09:22:32.684Z,15.26
2019-05-29T09:23:32.743Z,15.25
2019-05-29T09:24:32.708Z,15.00
2019-05-29T09:25:32.684Z,14.78
2019-05-29T09:26:32.725Z,14.83
2019-05-29T09:27:32.641Z,15.08
2019-05-29T09:28:32.704Z,15.26
2019-05-29T09:29:32.711Z,15.04
2019-05-29T09:30:32.652Z,15.11
2019-05-29T09:31:32.681Z,15.18
2019-05-29T09:33:32.719Z,15.06
2019-05-29T09:34:32.695Z,14.99
2019-05-29T09:35:32.714Z,14.98
2019-05-29T09:36:32.691Z,15.15
2019-05-29T09:37:32.686Z,15.02
2019-05-29T09:38:32.730Z,14.83
2019-05-29T09:39:32.742Z,15.04
2019-05-29T09:40:32.706Z,15.04
2019-05-29T09:41:32.727Z,15.30
2019-05-29T09:42:32.719Z,15.27
2019-05-29T09:43:32.694Z,15.12
2019-05-29T09:44:38.951Z,15.31
2019-05-29T09:45:32.675Z,15.29
2019-05-29T09:46:32.745Z,15.39
2019-05-29T09:47:32.692Z,15.36
2019-05-29T09:48:48.550Z,14.91
2019-05-29T09:49:32.707Z,15.05
2019-05-29T09:50:48.766Z,15.10
2019-05-29T09:51:32.701Z,15.22
2019-05-29T09:52:32.733Z,15.21
2019-05-29T09:53:32.699Z,15.19
2019-05-29T09:54:32.842Z,15.34
2019-05-29T09:55:32.710Z,15.39
2019-05-29T09:56:32.737Z,15.24
2019-05-29T09:57:32.684Z,15.32
2019-05-29T09:58:32.730Z,14.83
2019-05-29T09:59:32.741Z,14.88
2019-05-29T10:00:32.727Z,14.82
2019-05-29T10:01:32.720Z,15.11
2019-05-29T10:02:32.742Z,15.27
2019-05-29T10:03:32.775Z,15.44
2019-05-29T10:04:32.726Z,15.34
2019-05-29T10:05:32.739Z,15.16
2019-05-29T10:06:32.746Z,15.36
2019-05-29T10:07:32.704Z,15.39
2019-05-29T10:08:32.704Z,15.43
2019-05-29T10:09:32.692Z,15.57
2019-05-29T10:10:32.746Z,14.97
2019-05-29T10:11:32.718Z,14.99
2019-05-29T10:12:32.687Z,14.96
2019-05-29T10:13:32.727Z,15.06
2019-05-29T10:14:32.778Z,15.07
2019-05-29T10:15:32.707Z,15.17
2019-05-29T10:16:32.749Z,14.99
2019-05-29T10:17:32.768Z,14.82
2019-05-29T10:18:33.059Z,15.11
2019-05-29T10:19:32.733Z,14.81
2019-05-29T10:20:32.740Z,14.69
2019-05-29T10:21:40.221Z,14.75
2019-05-29T10:22:32.748Z,14.62
2019-05-29T10:23:32.764Z,14.64
2019-05-29T10:24:32.732Z,14.42
2019-05-29T10:25:32.735Z,14.68
2019-05-29T10:26:32.772Z,14.61
2019-05-29T10:27:32.718Z,14.46
2019-05-29T10:28:49.303Z,14.53
2019-05-29T10:29:32.731Z,14.18
2019-05-29T10:30:32.805Z,14.30
2019-05-29T10:31:32.750Z,14.56
2019-05-29T10:32:32.750Z,14.50
2019-05-29T10:33:32.720Z,14.76
2019-05-29T10:34:32.762Z,14.88
2019-05-29T10:35:32.786Z,14.93
2019-05-29T10:36:32.770Z,14.53
2019-05-29T10:37:32.749Z,14.48
2019-05-29T10:38:32.776Z,14.34
2019-05-29T10:39:32.765Z,14.39
2019-05-29T10:40:32.761Z,14.47
2019-05-29T10:41:32.776Z,14.65
2019-05-29T10:42:32.772Z,14.69
2019-05-29T10:43:34.459Z,14.38
2019-05-29T10:44:32.769Z,14.53
2019-05-29T10:45:32.771Z,14.53
2019-05-29T10:46:32.758Z,14.52
2019-05-29T10:47:32.777Z,14.39
2019-05-29T10:48:32.750Z,14.49
2019-05-29T10:49:32.755Z,14.63
2019-05-29T10:50:32.789Z,14.29
2019-05-29T10:51:32.758Z,14.38
2019-05-29T10:52:32.771Z,14.49
2019-05-29T10:53:32.780Z,14.59
2019-05-29T10:54:32.772Z,14.22
2019-05-29T10:55:32.751Z,14.60
2019-05-29T10:56:32.793Z,14.68
2019-05-29T10:57:32.802Z,14.45
2019-05-29T10:58:48.003Z,14.47
2019-05-29T10:59:32.805Z,14.27
2019-05-29T11:00:32.806Z,14.51
2019-05-29T11:01:32.781Z,14.15
2019-05-29T11:02:32.792Z,14.26
2019-05-29T11:03:32.753Z,14.13
2019-05-29T11:04:32.780Z,14.31
2019-05-29T11:05:33.135Z,14.55
2019-05-29T11:06:32.735Z,14.31
2019-05-29T11:07:33.149Z,14.32
2019-05-29T11:08:32.756Z,14.05
2019-05-29T11:09:43.851Z,14.18
2019-05-29T11:10:32.797Z,14.43
2019-05-29T11:11:32.809Z,13.93
2019-05-29T11:12:32.807Z,14.25
2019-05-29T11:13:32.763Z,14.34
2019-05-29T11:14:32.794Z,14.50
2019-05-29T11:15:32.781Z,14.03
2019-05-29T11:16:32.789Z,14.19
2019-05-29T11:17:33.007Z,14.20
2019-05-29T11:18:32.742Z,14.25
2019-05-29T11:19:32.766Z,14.33
2019-05-29T11:20:32.795Z,14.21
2019-05-29T11:21:32.826Z,13.88
2019-05-29T11:22:34.282Z,13.72
2019-05-29T11:23:32.773Z,14.04
2019-05-29T11:24:32.825Z,13.83
2019-05-29T11:25:32.784Z,14.12
2019-05-29T11:26:32.800Z,14.26
2019-05-29T11:27:32.828Z,13.60
2019-05-29T11:28:32.819Z,13.80
2019-05-29T11:29:32.815Z,13.87
2019-05-29T11:30:32.801Z,13.63
2019-05-29T11:31:32.820Z,13.80
2019-05-29T11:32:32.871Z,13.76
2019-05-29T11:33:32.774Z,13.73
2019-05-29T11:34:32.817Z,13.83
2019-05-29T11:35:32.821Z,14.04
2019-05-29T11:36:32.771Z,13.88
2019-05-29T11:37:32.813Z,14.18
2019-05-29T11:38:32.803Z,13.94
2019-05-29T11:39:32.843Z,14.02
2019-05-29T11:40:32.857Z,14.13
2019-05-29T11:41:32.833Z,14.16
2019-05-29T11:42:32.764Z,14.18
2019-05-29T11:43:32.807Z,14.19
2019-05-29T11:44:32.816Z,14.22
2019-05-29T11:45:35.331Z,13.80
2019-05-29T11:46:32.826Z,13.75
2019-05-29T11:47:32.811Z,13.72
2019-05-29T11:48:32.805Z,13.91
2019-05-29T11:49:32.804Z,14.01
2019-05-29T11:50:32.821Z,13.62
2019-05-29T11:51:32.774Z,13.83
2019-05-29T11:52:42.391Z,13.95
2019-05-29T11:53:34.016Z,13.82
2019-05-29T11:54:32.860Z,13.75
2019-05-29T11:55:32.802Z,13.81
2019-05-29T11:56:32.843Z,13.88
2019-05-29T11:57:32.907Z,13.96
2019-05-29T11:58:32.815Z,13.57
2019-05-29T11:59:32.812Z,13.77
2019-05-29T12:00:32.834Z,13.89
2019-05-29T12:01:49.214Z,13.53
2019-05-29T12:02:32.882Z,13.84
2019-05-29T12:03:32.863Z,13.81
2019-05-29T12:04:32.831Z,13.55
2019-05-29T12:05:32.822Z,13.78
2019-05-29T12:06:32.833Z,13.69
2019-05-29T12:07:32.814Z,13.78
2019-05-29T12:08:32.844Z,13.78
2019-05-29T12:09:33.722Z,13.51
2019-05-29T12:10:32.828Z,13.60
2019-05-29T12:11:32.811Z,13.88
2019-05-29T12:12:32.784Z,13.46
2019-05-29T12:13:32.825Z,13.70
2019-05-29T12:14:32.835Z,13.92
2019-05-29T12:15:32.865Z,13.79
2019-05-29T12:16:32.830Z,13.70
2019-05-29T12:17:32.927Z,13.67
2019-05-29T12:18:32.790Z,13.88
2019-05-29T12:19:32.827Z,13.77
2019-05-29T12:20:32.843Z,14.04
2019-05-29T12:21:32.825Z,13.96
2019-05-29T12:22:32.854Z,13.98
2019-05-29T12:23:32.854Z,13.87
2019-05-29T12:24:32.835Z,13.89
2019-05-29T12:25:32.832Z,13.74
2019-05-29T12:26:32.850Z,13.69
2019-05-29T12:27:32.891Z,13.73
2019-05-29T12:28:32.856Z,13.88
2019-05-29T12:29:32.866Z,13.97
2019-05-29T12:30:32.875Z,13.62
2019-05-29T12:31:32.871Z,13.66
2019-05-29T12:32:32.856Z,13.73
2019-05-29T12:33:32.876Z,13.81
2019-05-29T12:34:32.863Z,13.90
2019-05-29T12:35:32.860Z,13.92
2019-05-29T12:36:32.814Z,13.76
2019-05-29T12:37:32.831Z,13.78
2019-05-29T12:38:32.850Z,13.54
2019-05-29T12:39:32.829Z,13.69
2019-05-29T12:40:32.874Z,13.65
2019-05-29T12:41:32.855Z,13.48
2019-05-29T12:42:32.844Z,13.76
2019-05-29T12:43:32.849Z,13.82
2019-05-29T12:44:32.872Z,13.53
2019-05-29T12:45:32.897Z,13.77
2019-05-29T12:46:32.875Z,13.72
2019-05-29T12:47:32.843Z,13.83
2019-05-29T12:48:32.874Z,13.72
2019-05-29T12:49:32.848Z,13.80
2019-05-29T12:50:34.548Z,13.69
2019-05-29T12:51:32.849Z,13.50
2019-05-29T12:52:32.887Z,13.71
2019-05-29T12:53:32.875Z,13.77